Radar AviationWeather DUATS TFRs Wunderground Accuweather Weather.com

alt : Radar

TAFs

KTOL 251206Z 2512/2612 11004KT P6SM BKN028 OVC080
   FM252100 07005KT P6SM OVC025
   FM260100 05008KT 4SM -SHRA BR BKN008 OVC025
   FM260800 36008KT 6SM -SHRA BR BKN008 OVC025
KJXN 251154Z 2512/2612 13005KT P6SM BKN025
   FM260100 08008KT P6SM -SHRA OVC015
   FM260600 35012KT 6SM -RA BR OVC010
KCLE 251124Z 2512/2618 12005KT P6SM BKN035 OVC100
   FM251500 11008KT P6SM BKN025 OVC035
   FM252100 11006KT 4SM BR VCSH BKN015 OVC025
   FM260200 14005KT 2SM -SHRA BR BKN008 OVC015
   FM261700 31018G32KT 5SM -SHRA OVC025
KFDY 251124Z 2512/2612 10005KT P6SM OVC025
   FM251500 16005KT P6SM VCSH SCT015 OVC025
   FM251900 VRB03KT P6SM VCSH OVC015
   FM260100 06005KT 3SM -SHRA BR OVC008
   FM260800 36008KT 4SM -SHRA BR OVC008
KFWA 251121Z 2512/2612 13005KT P6SM OVC016
   FM260200 01005KT 5SM SHRA BR OVC008
   FM260600 34008KT 4SM SHRA BR OVC005
   FM260900 33012G20KT 6SM SHRA BR OVC010
KDTW 251120Z 2512/2618 11005KT P6SM OVC050
   FM251400 12005KT P6SM OVC028
   FM251800 10006KT P6SM OVC040
   FM260100 04005KT 5SM -RA BR OVC022
   FM260600 36012KT 3SM -RA BR SCT008 OVC014
   FM261400 32014G22KT P6SM SCT015 BKN028

METARs

KDUH 251256Z AUTO 11003KT 10SM OVC032 11/08 A2986 RMK AO2 T01100083
KFWA 251254Z 11006KT 10SM OVC014 12/08 A2984 RMK AO2 SLP105 T01220083
KDTW 251253Z 08003KT 10SM BKN045 OVC080 11/03 A2988 RMK AO2 SLP119 T01060033
KFDY 251253Z AUTO 11006KT 10SM OVC021 12/09 A2984 RMK AO2 SLP100 T01220089
KTDZ 251253Z AUTO 10005KT 10SM OVC025 11/08 A2987 RMK AO2 SLP115 T01060083
KTOL 251252Z 00000KT 10SM OVC025 12/07 A2986 RMK AO2 SLP111 T01170072
KCLE 251251Z 16006KT 10SM OVC036 12/06 A2991 RMK AO2 SLP128 T01220061 $
KJXN 251156Z 10005KT 10SM OVC039 11/03 A2985 RMK AO2 SLP109 T01060028 10117 20100 53001

alt : Satellite

alt : TFRs